Time;durP1;ratioP1;P1;durP2;ratioP2;P2;SDS_P1;SDS_P2;PMS_P1;PMS_P2;Temp;Humidity;BMP_temperature;BMP_pressure;BME280_temperature;BME280_humidity;BME280_pressure;Samples;Min_cycle;Max_cycle;Signal;HPM_P1;HPM_P2
2021/06/18 00:00:20;;;;;;;0.10;0.10;;;;;;;17.05;38.01;98103.19;5093991;28;20118;-61
2021/06/18 00:02:46;;;;;;;0.13;0.13;;;;;;;17.75;37.34;98110.91;5094183;28;20046;-61
2021/06/18 00:05:13;;;;;;;0.10;0.10;;;;;;;18.44;36.58;98117.97;5092921;28;20122;-62
2021/06/18 00:07:40;;;;;;;0.20;0.20;;;;;;;17.86;38.12;98115.19;5094424;28;20488;-62
2021/06/18 00:10:08;;;;;;;0.38;0.38;;;;;;;18.05;38.21;98125.53;5093735;28;20024;-63
2021/06/18 00:12:34;;;;;;;0.55;0.55;;;;;;;18.37;38.06;98126.69;5093699;28;20028;-64
2021/06/18 00:15:00;;;;;;;0.20;0.20;;;;;;;17.71;39.28;98136.81;5093813;28;20039;-64
2021/06/18 00:17:27;;;;;;;0.10;0.10;;;;;;;16.47;41.83;98146.44;5093618;28;20046;-61
2021/06/18 00:19:53;;;;;;;0.25;0.25;;;;;;;14.81;44.96;98147.50;5094117;28;20069;-61
2021/06/18 00:22:19;;;;;;;0.10;0.10;;;;;;;13.68;47.13;98139.97;5093594;28;20119;-62
2021/06/18 00:24:45;;;;;;;0.10;0.10;;;;;;;12.96;48.67;98148.72;5094025;28;20024;-64
2021/06/18 00:27:10;;;;;;;0.10;0.10;;;;;;;12.34;49.69;98161.22;5093475;28;20065;-63
2021/06/18 00:29:36;;;;;;;0.25;0.25;;;;;;;12.58;49.00;98149.84;5091646;28;20082;-63
2021/06/18 00:32:03;;;;;;;0.57;0.57;;;;;;;13.40;46.84;98150.34;5093265;28;20032;-64
2021/06/18 00:34:28;;;;;;;0.88;0.35;;;;;;;14.31;44.71;98147.22;5093474;28;20575;-63
2021/06/18 00:36:54;;;;;;;0.20;0.20;;;;;;;15.48;42.32;98147.31;5093694;28;20144;-63
2021/06/18 00:39:21;;;;;;;0.10;0.10;;;;;;;14.88;43.44;98150.78;5093433;28;20036;-63
2021/06/18 00:41:48;;;;;;;0.28;0.28;;;;;;;14.06;44.98;98150.78;5091950;28;20479;-62
2021/06/18 00:44:14;;;;;;;0.10;0.10;;;;;;;14.36;44.70;98161.84;5093371;28;20118;-63
2021/06/18 00:46:40;;;;;;;0.10;0.10;;;;;;;16.72;40.11;98163.97;5093363;28;20070;-63
2021/06/18 00:49:07;;;;;;;0.52;0.35;;;;;;;18.09;38.01;98157.13;5092308;28;20044;-63
2021/06/18 00:51:33;;;;;;;0.30;0.30;;;;;;;17.43;39.20;98170.75;5092817;28;20031;-62
2021/06/18 00:53:59;;;;;;;0.30;0.30;;;;;;;19.06;36.88;98163.03;5093165;28;20398;-65
2021/06/18 00:56:26;;;;;;;0.10;0.10;;;;;;;20.59;34.79;98175.97;5093407;28;20032;-63
2021/06/18 00:58:52;;;;;;;0.20;0.20;;;;;;;21.39;34.03;98178.13;5091518;28;20032;-63
2021/06/18 01:01:18;;;;;;;0.47;0.43;;;;;;;22.56;32.51;98176.59;5091620;28;20025;-63
2021/06/18 01:03:43;;;;;;;0.32;0.32;;;;;;;22.11;33.91;98176.06;5092900;28;20165;-63
2021/06/18 01:06:17;;;;;;;0.52;0.20;;;;;;;21.26;35.20;98186.28;5092762;28;20028;-62
2021/06/18 01:08:46;;;;;;;0.90;0.40;;;;;;;20.18;37.36;98182.53;5091538;28;20418;-62
2021/06/18 01:11:25;;;;;;;0.10;0.10;;;;;;;19.12;38.98;98183.25;5093107;28;20028;-62
2021/06/18 01:14:29;;;;;;;0.10;0.10;;;;;;;19.38;38.88;98188.34;5093316;28;20040;-62
2021/06/18 01:17:06;;;;;;;0.17;0.17;;;;;;;20.69;36.35;98188.91;5090991;28;20425;-65
2021/06/18 01:19:53;;;;;;;0.30;0.30;;;;;;;21.48;35.11;98202.16;5092753;28;20474;-67
2021/06/18 01:22:23;;;;;;;0.82;0.82;;;;;;;19.37;38.87;98207.00;5092748;28;20039;-63
2021/06/18 01:25:00;;;;;;;0.10;0.10;;;;;;;18.03;41.21;98216.66;5091746;28;20067;-63
2021/06/18 01:27:32;;;;;;;0.98;0.32;;;;;;;19.61;38.39;98211.56;5092875;28;20524;-66
2021/06/18 01:30:06;;;;;;;0.20;0.20;;;;;;;22.15;34.58;98214.22;5090999;28;20056;-64
2021/06/18 01:32:45;;;;;;;0.10;0.10;;;;;;;22.97;33.20;98213.59;5091062;28;20028;-64
2021/06/18 01:35:18;;;;;;;0.10;0.10;;;;;;;22.15;34.32;98219.81;5092466;28;20036;-63
2021/06/18 01:37:48;;;;;;;0.30;0.30;;;;;;;22.10;34.61;98219.97;5092717;28;20520;-63
2021/06/18 01:40:16;;;;;;;0.10;0.10;;;;;;;20.86;36.66;98228.06;5092626;28;20035;-63
2021/06/18 01:42:45;;;;;;;0.30;0.30;;;;;;;19.04;39.83;98226.53;5092655;28;20077;-64
2021/06/18 01:45:14;;;;;;;0.30;0.30;;;;;;;17.58;42.04;98222.47;5092708;28;20032;-64
2021/06/18 01:47:43;;;;;;;0.20;0.20;;;;;;;16.77;43.51;98244.31;5092722;28;20194;-64
2021/06/18 01:50:12;;;;;;;0.70;0.65;;;;;;;15.88;44.81;98236.81;5092887;28;20024;-65
2021/06/18 01:52:40;;;;;;;0.10;0.10;;;;;;;15.31;45.27;98245.28;5074132;28;20036;-64
2021/06/18 01:55:07;;;;;;;0.10;0.10;;;;;;;14.98;45.35;98249.47;5074417;28;20081;-64
2021/06/18 01:57:35;;;;;;;0.10;0.10;;;;;;;14.77;45.65;98245.91;5090666;28;20024;-64
2021/06/18 02:00:04;;;;;;;0.20;0.20;;;;;;;14.49;45.56;98261.88;5092062;28;20035;-64
2021/06/18 02:02:31;;;;;;;2.10;0.52;;;;;;;14.32;45.42;98254.63;5092799;28;20350;-63
2021/06/18 02:04:59;;;;;;;0.20;0.20;;;;;;;14.54;44.62;98261.88;5092194;28;20039;-64
2021/06/18 02:07:27;;;;;;;0.47;0.47;;;;;;;14.61;44.32;98256.94;5092329;28;20031;-65
2021/06/18 02:09:55;;;;;;;0.20;0.20;;;;;;;15.18;42.64;98265.19;5092347;28;20036;-65
2021/06/18 02:12:21;;;;;;;0.30;0.30;;;;;;;15.28;42.18;98272.66;5092265;28;20505;-64
2021/06/18 02:14:48;;;;;;;0.20;0.20;;;;;;;15.26;42.25;98270.19;5090541;28;20035;-64
2021/06/18 02:17:15;;;;;;;0.28;0.28;;;;;;;15.63;41.50;98268.16;5090416;28;20044;-64
2021/06/18 02:19:43;;;;;;;0.35;0.35;;;;;;;16.65;39.52;98283.47;5092527;28;20042;-64
2021/06/18 02:22:11;;;;;;;0.10;0.10;;;;;;;16.24;40.11;98279.03;5090834;28;20119;-65
2021/06/18 02:24:38;;;;;;;0.40;0.40;;;;;;;16.02;40.92;98275.78;5092045;28;20039;-66
2021/06/18 02:27:05;;;;;;;0.22;0.22;;;;;;;16.20;40.47;98288.19;5092982;28;20028;-64
2021/06/18 02:29:32;;;;;;;0.10;0.10;;;;;;;17.12;38.83;98298.69;5095635;28;20051;-64
2021/06/18 02:32:02;;;;;;;0.55;0.40;;;;;;;20.21;34.27;98285.84;5095821;28;20028;-63
2021/06/18 02:34:27;;;;;;;0.10;0.10;;;;;;;23.50;30.03;98286.34;5095293;28;20036;-64
2021/06/18 02:36:53;;;;;;;0.10;0.10;;;;;;;25.65;27.82;98287.63;5095506;28;20039;-64
2021/06/18 02:39:19;;;;;;;0.28;0.28;;;;;;;27.50;26.61;98295.84;5093946;28;20454;-63
2021/06/18 02:41:45;;;;;;;0.10;0.10;;;;;;;28.58;25.80;98290.16;5095681;28;20558;-63
2021/06/18 02:44:11;;;;;;;0.10;0.10;;;;;;;29.35;25.73;98296.28;5095644;28;20032;-63
2021/06/18 02:47:01;;;;;;;0.10;0.10;;;;;;;29.39;26.33;98285.03;5095490;28;20036;-63
2021/06/18 02:49:52;;;;;;;0.20;0.20;;;;;;;29.49;26.59;98290.94;5095582;28;20028;-62
2021/06/18 02:52:26;;;;;;;0.10;0.10;;;;;;;29.55;27.13;98294.28;5095128;28;20035;-63
2021/06/18 02:55:03;;;;;;;0.10;0.10;;;;;;;29.84;26.84;98300.47;5095539;28;20149;-62
2021/06/18 02:57:34;;;;;;;0.10;0.10;;;;;;;30.71;26.48;98297.91;5095073;28;20513;-64
2021/06/18 03:00:08;;;;;;;0.10;0.10;;;;;;;31.33;26.02;98310.06;5094843;28;20040;-63
2021/06/18 03:02:44;;;;;;;0.30;0.30;;;;;;;32.02;25.15;98301.09;5094928;28;20063;-61
2021/06/18 03:05:12;;;;;;;0.20;0.20;;;;;;;32.26;25.21;98310.28;5095248;28;20436;-65
2021/06/18 03:07:43;;;;;;;0.10;0.10;;;;;;;31.97;26.09;98310.00;5093788;28;20030;-64
2021/06/18 03:10:15;;;;;;;0.30;0.30;;;;;;;32.98;24.84;98317.31;5095136;28;20043;-65
2021/06/18 03:12:43;;;;;;;0.00;0.00;;;;;;;31.91;26.42;98317.25;5095092;28;20539;-65
2021/06/18 03:15:10;;;;;;;0.10;0.10;;;;;;;29.50;29.21;98320.03;5093168;28;20121;-66
2021/06/18 03:17:39;;;;;;;0.10;0.10;;;;;;;30.09;28.42;98336.91;5094804;28;20111;-65
2021/06/18 03:20:09;;;;;;;0.10;0.10;;;;;;;30.44;27.59;98338.75;5095108;28;20036;-64
2021/06/18 03:22:37;;;;;;;0.10;0.10;;;;;;;29.97;28.07;98321.75;5093236;28;20439;-63
2021/06/18 03:25:05;;;;;;;0.10;0.10;;;;;;;29.84;28.26;98335.28;5094670;28;20036;-64
2021/06/18 03:27:37;;;;;;;0.10;0.10;;;;;;;30.10;27.66;98327.25;5094818;28;20038;-64
2021/06/18 03:30:06;;;;;;;0.20;0.20;;;;;;;30.96;26.41;98339.94;5094499;28;20047;-63
2021/06/18 03:32:33;;;;;;;0.10;0.10;;;;;;;31.13;26.32;98334.94;5095126;28;20063;-63
2021/06/18 03:34:59;;;;;;;0.20;0.20;;;;;;;31.76;25.51;98341.81;5094747;28;20028;-63
2021/06/18 03:37:26;;;;;;;0.13;0.13;;;;;;;32.19;25.26;98330.09;5094625;28;20036;-63
2021/06/18 03:39:53;;;;;;;0.10;0.10;;;;;;;32.65;24.73;98355.22;5094434;28;20059;-62
2021/06/18 03:42:21;;;;;;;0.10;0.10;;;;;;;32.59;24.51;98363.31;5094052;28;20031;-63
2021/06/18 03:44:48;;;;;;;0.10;0.10;;;;;;;32.08;25.25;98372.56;5094453;28;20035;-62
2021/06/18 03:47:15;;;;;;;0.10;0.10;;;;;;;31.09;26.33;98369.72;5094393;28;20428;-65
2021/06/18 03:49:45;;;;;;;0.10;0.10;;;;;;;30.79;26.41;98371.69;5094456;28;20489;-68
2021/06/18 03:52:11;;;;;;;0.47;0.47;;;;;;;29.15;28.24;98392.41;5094761;28;20040;-64
2021/06/18 03:54:38;;;;;;;0.10;0.10;;;;;;;26.14;32.17;98394.59;5093975;28;20024;-62
2021/06/18 03:57:06;;;;;;;0.10;0.10;;;;;;;25.65;32.24;98377.59;5094280;28;20496;-62
2021/06/18 03:59:33;;;;;;;0.10;0.10;;;;;;;27.49;29.56;98361.91;5094530;28;20525;-63
2021/06/18 04:02:00;;;;;;;0.60;0.20;;;;;;;29.43;26.63;98380.09;5094298;28;20509;-62
2021/06/18 04:04:31;;;;;;;0.10;0.10;;;;;;;31.06;24.89;98376.16;5094109;28;20027;-63
2021/06/18 04:06:58;;;;;;;0.10;0.10;;;;;;;30.83;25.00;98387.56;5091186;28;20561;-61
2021/06/18 04:09:25;;;;;;;0.10;0.10;;;;;;;31.18;24.50;98400.63;5092705;28;20024;-60
2021/06/18 04:11:51;;;;;;;1.35;0.38;;;;;;;31.85;23.85;98393.41;5093299;28;20039;-60
2021/06/18 04:14:17;;;;;;;0.35;0.32;;;;;;;32.17;23.68;98397.81;5075580;28;20119;-59
2021/06/18 04:16:43;;;;;;;1.08;0.20;;;;;;;30.45;25.53;98408.34;5089196;28;20114;-63
2021/06/18 04:19:12;;;;;;;0.20;0.20;;;;;;;28.99;26.85;98420.69;5091669;28;20121;-63
2021/06/18 04:21:45;;;;;;;0.10;0.10;;;;;;;28.00;28.01;98409.28;5091861;28;20036;-64
2021/06/18 04:24:13;;;;;;;0.00;0.00;;;;;;;28.23;27.39;98411.50;5092069;28;20119;-61
2021/06/18 04:26:39;;;;;;;0.20;0.20;;;;;;;29.54;25.78;98411.44;5093228;28;20042;-65
2021/06/18 04:29:05;;;;;;;0.47;0.40;;;;;;;30.82;24.22;98414.25;5092650;28;20055;-63
2021/06/18 04:31:30;;;;;;;0.00;0.00;;;;;;;30.65;24.63;98421.25;5091492;28;20338;-60
2021/06/18 04:33:56;;;;;;;0.10;0.10;;;;;;;30.71;24.36;98425.41;5093409;28;20113;-62
2021/06/18 04:36:22;;;;;;;0.10;0.10;;;;;;;30.25;24.95;98425.38;5093184;28;20497;-64
2021/06/18 04:38:48;;;;;;;0.10;0.10;;;;;;;31.08;23.98;98424.81;5074695;28;20627;-65
2021/06/18 04:41:14;;;;;;;0.10;0.10;;;;;;;31.62;23.62;98421.91;5092986;28;20044;-65
2021/06/18 04:43:40;;;;;;;0.10;0.10;;;;;;;31.68;23.44;98436.59;5093274;28;20114;-64
2021/06/18 04:46:06;;;;;;;0.10;0.10;;;;;;;31.46;23.56;98422.09;5075084;28;20027;-65
2021/06/18 04:48:31;;;;;;;0.10;0.10;;;;;;;31.12;23.94;98438.22;5092985;28;20024;-62
2021/06/18 04:50:57;;;;;;;0.35;0.35;;;;;;;31.03;23.85;98427.97;5092798;28;20057;-62
2021/06/18 04:53:24;;;;;;;0.10;0.10;;;;;;;31.13;23.88;98431.34;5093240;28;20044;-63
2021/06/18 04:55:49;;;;;;;0.10;0.10;;;;;;;30.98;23.88;98439.59;5091537;28;20047;-63
2021/06/18 04:58:15;;;;;;;0.10;0.10;;;;;;;31.14;23.78;98447.16;5092816;28;20039;-62
2021/06/18 05:00:41;;;;;;;0.10;0.10;;;;;;;31.19;23.68;98444.00;5092713;28;20115;-61
2021/06/18 05:03:07;;;;;;;0.10;0.10;;;;;;;31.36;23.67;98429.25;5074718;28;20028;-64
2021/06/18 05:05:33;;;;;;;0.10;0.10;;;;;;;31.64;23.10;98447.06;5092671;28;20024;-63
2021/06/18 05:07:59;;;;;;;0.10;0.10;;;;;;;30.80;23.88;98441.31;5092738;28;20508;-64
2021/06/18 05:10:25;;;;;;;0.60;0.30;;;;;;;29.98;24.82;98430.94;5093286;28;20081;-64
2021/06/18 05:12:52;;;;;;;0.10;0.10;;;;;;;29.21;25.79;98440.16;5084261;28;20109;-64
2021/06/18 05:15:18;;;;;;;0.10;0.10;;;;;;;30.15;24.44;98435.31;5088511;28;20034;-64
2021/06/18 05:17:47;;;;;;;0.10;0.10;;;;;;;30.85;23.61;98438.19;5087873;28;20059;-63
2021/06/18 05:20:15;;;;;;;0.20;0.20;;;;;;;31.63;22.74;98446.25;5086379;28;20028;-64
2021/06/18 05:22:41;;;;;;;0.10;0.10;;;;;;;31.71;22.84;98450.81;5087852;28;20416;-62
2021/06/18 05:25:08;;;;;;;0.28;0.20;;;;;;;31.98;22.43;98450.75;5087974;28;20028;-64
2021/06/18 05:27:34;;;;;;;0.00;0.00;;;;;;;31.44;23.18;98448.00;5088603;28;20103;-62
2021/06/18 05:30:00;;;;;;;0.03;0.03;;;;;;;29.87;24.89;98455.38;5087871;28;20054;-63
2021/06/18 05:32:25;;;;;;;0.10;0.10;;;;;;;30.08;24.39;98451.34;5087878;28;20032;-64
2021/06/18 05:34:51;;;;;;;0.10;0.10;;;;;;;30.37;23.68;98456.38;5088291;28;20055;-66
2021/06/18 05:37:17;;;;;;;0.40;0.25;;;;;;;31.19;23.00;98461.00;5088851;28;20589;-65
2021/06/18 05:39:43;;;;;;;0.65;0.13;;;;;;;31.85;22.17;98467.22;5085202;28;20507;-68
2021/06/18 05:42:10;;;;;;;0.45;0.20;;;;;;;30.13;23.95;98473.69;5089628;28;20066;-64
2021/06/18 05:44:36;;;;;;;0.13;0.13;;;;;;;29.88;24.21;98477.66;5070874;28;20036;-65
2021/06/18 05:47:02;;;;;;;0.10;0.10;;;;;;;29.33;24.64;98462.69;5089562;28;20036;-67
2021/06/18 05:49:28;;;;;;;0.10;0.10;;;;;;;27.91;26.20;98460.19;5089281;28;20036;-67
2021/06/18 05:51:53;;;;;;;0.10;0.10;;;;;;;28.86;24.61;98461.56;5088331;28;20020;-68
2021/06/18 05:54:19;;;;;;;0.10;0.10;;;;;;;28.08;25.56;98469.56;5089487;28;20032;-66
2021/06/18 05:56:45;;;;;;;8.10;0.30;;;;;;;25.32;28.06;98483.19;5088931;28;20036;-66
2021/06/18 05:59:11;;;;;;;0.10;0.10;;;;;;;24.10;29.49;98478.84;5088222;28;20397;-66
2021/06/18 06:01:37;;;;;;;0.10;0.10;;;;;;;22.53;31.27;98479.41;5089434;28;20024;-66
2021/06/18 06:04:03;;;;;;;0.10;0.10;;;;;;;21.48;32.03;98486.22;5093345;28;20400;-66
2021/06/18 06:06:29;;;;;;;0.00;0.00;;;;;;;20.78;32.07;98482.72;5093080;28;20024;-66
2021/06/18 06:08:55;;;;;;;0.30;0.10;;;;;;;20.16;32.58;98483.88;5091679;28;20421;-68
2021/06/18 06:11:21;;;;;;;0.17;0.15;;;;;;;19.69;32.54;98480.19;5093269;28;20089;-65
2021/06/18 06:13:48;;;;;;;0.10;0.10;;;;;;;19.28;32.66;98497.50;5092840;28;20038;-64
2021/06/18 06:16:14;;;;;;;0.10;0.10;;;;;;;18.98;32.32;98494.84;5093500;28;20036;-66
2021/06/18 06:18:40;;;;;;;0.13;0.13;;;;;;;18.71;32.30;98478.72;5092680;28;20040;-66
2021/06/18 06:21:06;;;;;;;0.20;0.20;;;;;;;18.37;32.17;98494.41;5091764;28;20032;-66
2021/06/18 06:23:32;;;;;;;0.17;0.15;;;;;;;18.19;32.03;98512.63;5092663;28;20062;-64
2021/06/18 06:25:58;;;;;;;0.10;0.10;;;;;;;18.13;31.59;98474.91;5088643;28;20036;-66
2021/06/18 06:28:23;;;;;;;0.10;0.10;;;;;;;18.00;31.69;98506.16;5088073;28;20077;-66
2021/06/18 06:30:49;;;;;;;0.10;0.10;;;;;;;18.07;31.24;98497.50;5088542;28;20508;-63
2021/06/18 06:33:16;;;;;;;0.10;0.10;;;;;;;17.88;31.05;98494.56;5088466;28;20593;-63
2021/06/18 06:35:43;;;;;;;0.10;0.10;;;;;;;17.79;31.08;98488.81;5086968;28;20024;-65
2021/06/18 06:38:09;;;;;;;0.10;0.10;;;;;;;17.66;31.14;98504.16;5068183;28;20547;-64
2021/06/18 06:40:35;;;;;;;0.35;0.35;;;;;;;17.78;30.65;98507.41;5086427;28;20130;-63
2021/06/18 06:43:01;;;;;;;0.10;0.10;;;;;;;17.74;30.59;98506.34;5085547;28;20028;-65
2021/06/18 06:45:27;;;;;;;0.10;0.10;;;;;;;17.90;30.30;98484.84;5090410;28;20043;-64
2021/06/18 06:47:53;;;;;;;0.10;0.10;;;;;;;17.81;30.16;98508.78;5090858;28;20032;-62
2021/06/18 06:50:19;;;;;;;0.08;0.08;;;;;;;17.67;30.41;98511.38;5091164;28;20032;-64
2021/06/18 06:52:48;;;;;;;0.10;0.10;;;;;;;17.52;30.40;98510.38;5090696;28;20035;-66
2021/06/18 06:55:14;;;;;;;0.10;0.10;;;;;;;17.33;30.70;98498.28;5089329;28;20032;-63
2021/06/18 06:57:42;;;;;;;0.10;0.10;;;;;;;17.37;30.46;98504.91;5092560;28;20110;-65
2021/06/18 07:00:09;;;;;;;0.10;0.10;;;;;;;17.56;29.78;98504.25;5091298;28;20016;-64
2021/06/18 07:02:34;;;;;;;0.10;0.10;;;;;;;17.53;29.85;98511.19;5089982;28;20113;-65
2021/06/18 07:05:01;;;;;;;0.25;0.25;;;;;;;17.26;30.37;98500.56;5090730;28;20478;-65
2021/06/18 07:07:27;;;;;;;0.10;0.10;;;;;;;17.37;30.12;98495.75;5090407;28;20035;-64
2021/06/18 07:09:53;;;;;;;0.30;0.30;;;;;;;17.59;29.80;98489.78;5090410;28;20447;-66
2021/06/18 07:12:19;;;;;;;0.10;0.10;;;;;;;17.52;29.63;98493.72;5089987;28;20067;-64
2021/06/18 07:14:45;;;;;;;0.20;0.20;;;;;;;17.45;29.95;98486.84;5089245;28;20501;-64
2021/06/18 07:17:11;;;;;;;0.20;0.20;;;;;;;17.36;30.23;98486.63;5090767;28;20028;-62
2021/06/18 07:19:39;;;;;;;0.10;0.10;;;;;;;17.52;29.98;98498.44;5089648;28;20059;-63
2021/06/18 07:22:05;;;;;;;0.10;0.10;;;;;;;17.92;29.26;98492.88;5090515;28;20521;-66
2021/06/18 07:24:31;;;;;;;0.13;0.13;;;;;;;18.00;29.32;98514.47;5086082;28;20475;-64
2021/06/18 07:26:57;;;;;;;0.10;0.10;;;;;;;17.86;29.33;98503.19;5089921;28;20047;-64
2021/06/18 07:29:28;;;;;;;0.10;0.10;;;;;;;17.64;29.68;98501.69;5087972;28;20051;-65
2021/06/18 07:31:55;;;;;;;0.10;0.10;;;;;;;17.49;30.02;98502.63;5090336;28;20036;-63
2021/06/18 07:34:21;;;;;;;0.10;0.10;;;;;;;17.54;29.98;98506.50;5089957;28;20341;-64
2021/06/18 07:36:47;;;;;;;0.10;0.10;;;;;;;17.86;29.60;98498.44;5088442;28;20465;-63
2021/06/18 07:39:15;;;;;;;0.10;0.10;;;;;;;18.29;29.08;98494.22;5089407;28;20394;-63
2021/06/18 07:41:58;;;;;;;0.17;0.17;;;;;;;18.39;28.99;98508.81;5084963;28;20034;-66
2021/06/18 07:44:26;;;;;;;0.10;0.10;;;;;;;18.06;29.27;98506.94;5072573;28;20089;-62
2021/06/18 07:46:52;;;;;;;0.10;0.10;;;;;;;17.68;29.79;98507.47;5087868;28;20028;-65
2021/06/18 07:49:18;;;;;;;0.10;0.10;;;;;;;17.46;30.25;98521.78;5089417;28;20489;-65
2021/06/18 07:51:44;;;;;;;0.10;0.10;;;;;;;17.14;30.45;98496.16;5088648;28;20090;-64
2021/06/18 07:54:10;;;;;;;0.20;0.20;;;;;;;16.94;30.90;98519.28;5089287;28;20039;-65
2021/06/18 07:56:44;;;;;;;0.20;0.20;;;;;;;16.81;30.63;98511.53;5089785;28;20024;-65
2021/06/18 08:01:48;;;;;;;0.10;0.10;;;;;;;17.08;30.37;98500.09;5032594;28;20065;-61
2021/06/18 08:04:14;;;;;;;0.10;0.10;;;;;;;17.49;29.57;98516.50;5046741;28;20498;-59
2021/06/18 08:06:40;;;;;;;0.10;0.10;;;;;;;17.47;29.65;98512.34;5041780;28;20037;-64
2021/06/18 08:09:06;;;;;;;0.10;0.10;;;;;;;17.27;30.17;98497.50;5048265;28;20064;-61
2021/06/18 08:11:32;;;;;;;0.10;0.10;;;;;;;17.05;30.22;98516.47;5050188;28;20379;-60
2021/06/18 08:13:58;;;;;;;0.10;0.10;;;;;;;17.09;30.30;98512.00;5047528;28;20040;-61
2021/06/18 08:16:24;;;;;;;0.10;0.10;;;;;;;17.25;30.09;98521.09;5048794;28;20029;-59
2021/06/18 08:18:49;;;;;;;0.20;0.20;;;;;;;17.45;29.79;98507.09;5048737;28;20029;-68
2021/06/18 08:21:15;;;;;;;0.10;0.10;;;;;;;17.79;29.27;98520.16;5048561;28;20029;-61
2021/06/18 08:23:41;;;;;;;0.20;0.20;;;;;;;17.96;29.39;98514.25;5048470;28;20033;-65
2021/06/18 08:26:07;;;;;;;0.45;0.45;;;;;;;17.81;29.25;98517.91;5048765;28;20036;-62
2021/06/18 08:28:33;;;;;;;0.10;0.10;;;;;;;17.52;29.61;98512.34;5048955;28;20041;-61
2021/06/18 08:31:00;;;;;;;1.13;0.40;;;;;;;17.24;30.02;98520.28;5049084;28;20493;-62
2021/06/18 08:33:26;;;;;;;0.10;0.10;;;;;;;17.09;30.33;98531.44;5049709;28;20033;-65
2021/06/18 08:35:52;;;;;;;0.10;0.10;;;;;;;16.88;30.41;98520.41;5048998;28;20132;-62
2021/06/18 08:38:18;;;;;;;0.20;0.20;;;;;;;17.00;30.52;98520.09;5050150;28;20068;-63
2021/06/18 08:40:44;;;;;;;0.10;0.10;;;;;;;17.50;29.70;98515.41;5048218;28;20446;-63
2021/06/18 08:43:10;;;;;;;0.30;0.30;;;;;;;18.02;29.14;98512.22;5048694;28;20484;-62
2021/06/18 08:45:36;;;;;;;0.20;0.20;;;;;;;18.30;28.82;98523.66;5049837;28;20037;-64
2021/06/18 08:48:03;;;;;;;0.10;0.10;;;;;;;18.36;28.74;98516.94;5049426;28;20041;-60
2021/06/18 08:50:29;;;;;;;0.10;0.10;;;;;;;18.49;28.51;98527.38;5049336;28;20498;-63
2021/06/18 08:52:57;;;;;;;0.10;0.10;;;;;;;18.64;28.51;98512.47;5048193;28;20086;-62
2021/06/18 08:55:25;;;;;;;0.10;0.10;;;;;;;18.72;28.45;98530.44;5049257;28;20748;-64
2021/06/18 08:57:53;;;;;;;0.10;0.10;;;;;;;18.60;28.64;98519.72;5048544;28;20500;-65
2021/06/18 09:00:21;;;;;;;0.10;0.10;;;;;;;18.28;29.05;98521.16;5049286;28;20053;-67
2021/06/18 09:02:47;;;;;;;0.10;0.10;;;;;;;17.96;29.55;98535.63;5049303;28;20052;-65
2021/06/18 09:05:15;;;;;;;0.10;0.10;;;;;;;17.81;29.78;98525.44;5049511;28;20536;-65
2021/06/18 09:08:04;;;;;;;0.10;0.10;;;;;;;17.72;29.58;98519.66;5049218;28;20044;-64
2021/06/18 09:10:42;;;;;;;0.10;0.10;;;;;;;17.73;29.59;98518.56;5049199;28;20050;-66
2021/06/18 09:13:12;;;;;;;0.10;0.10;;;;;;;17.98;29.33;98508.41;5049311;28;20067;-64
2021/06/18 09:15:40;;;;;;;0.40;0.40;;;;;;;18.12;29.20;98509.34;5047763;28;20441;-64
2021/06/18 09:18:32;;;;;;;0.10;0.10;;;;;;;18.18;28.96;98529.59;5048931;28;20036;-61
2021/06/18 09:21:10;;;;;;;0.10;0.10;;;;;;;17.97;29.30;98521.44;5047785;28;20033;-65
2021/06/18 09:23:39;;;;;;;0.10;0.10;;;;;;;17.96;29.28;98518.97;5048769;28;20447;-64
2021/06/18 09:26:27;;;;;;;0.13;0.13;;;;;;;18.19;29.02;98526.53;5046752;28;20032;-63
2021/06/18 09:29:18;;;;;;;0.10;0.10;;;;;;;18.47;28.58;98526.81;5048184;28;21269;-63
2021/06/18 09:31:53;;;;;;;0.15;0.15;;;;;;;18.83;28.15;98532.00;5048535;28;20054;-65
2021/06/18 09:37:33;;;;;;;0.10;0.10;;;;;;;18.74;28.39;98522.63;5054549;28;20079;-62
2021/06/18 09:40:18;;;;;;;0.10;0.10;;;;;;;18.86;28.47;98519.44;5054479;28;20045;-66
2021/06/18 09:42:52;;;;;;;0.10;0.10;;;;;;;18.80;28.30;98512.28;5055214;28;20025;-62
2021/06/18 09:45:27;;;;;;;0.10;0.10;;;;;;;18.68;28.58;98530.22;5054393;28;20051;-65
2021/06/18 09:48:15;;;;;;;0.10;0.10;;;;;;;18.80;28.43;98521.47;5055232;28;20131;-65
2021/06/18 09:50:45;;;;;;;0.10;0.10;;;;;;;19.03;27.98;98518.97;5055477;28;20098;-61
2021/06/18 09:53:26;;;;;;;0.10;0.10;;;;;;;19.25;27.80;98537.88;5056019;28;20106;-63
2021/06/18 09:56:11;;;;;;;0.10;0.10;;;;;;;18.97;28.30;98528.53;5056382;28;20045;-63
2021/06/18 09:58:47;;;;;;;0.10;0.10;;;;;;;18.44;28.96;98535.75;5055663;28;20560;-63
2021/06/18 10:01:23;;;;;;;0.15;0.10;;;;;;;18.13;29.37;98518.53;5053772;28;20476;-64
2021/06/18 10:04:13;;;;;;;0.10;0.10;;;;;;;17.96;29.30;98539.25;5052987;28;20045;-63
2021/06/18 10:06:41;;;;;;;0.10;0.10;;;;;;;17.74;29.69;98536.88;5054842;28;20107;-62
2021/06/18 10:09:15;;;;;;;0.10;0.10;;;;;;;17.77;29.56;98533.53;5056139;28;20090;-63
2021/06/18 10:11:45;;;;;;;0.00;0.00;;;;;;;17.90;29.38;98534.00;5055407;28;20033;-63
2021/06/18 10:14:16;;;;;;;0.10;0.10;;;;;;;17.91;29.04;98532.91;5052254;28;20029;-62
2021/06/18 10:16:43;;;;;;;0.10;0.10;;;;;;;17.92;29.04;98528.97;5052174;28;20041;-64
2021/06/18 10:19:09;;;;;;;0.10;0.10;;;;;;;17.82;29.14;98535.44;5055054;28;20102;-68
2021/06/18 10:21:52;;;;;;;0.10;0.10;;;;;;;17.93;28.81;98530.66;5054132;28;20480;-64
2021/06/18 10:24:20;;;;;;;0.08;0.08;;;;;;;18.10;28.64;98522.72;5054555;28;20028;-64
2021/06/18 10:26:51;;;;;;;0.10;0.10;;;;;;;18.18;28.21;98511.00;5053769;28;20033;-63
2021/06/18 10:29:40;;;;;;;0.10;0.10;;;;;;;18.21;28.24;98515.97;5054458;28;20086;-64
2021/06/18 10:32:27;;;;;;;0.30;0.20;;;;;;;18.34;28.10;98519.16;5054054;28;20047;-62
2021/06/18 10:34:54;;;;;;;0.10;0.10;;;;;;;18.56;27.84;98518.66;5054493;28;20064;-60
2021/06/18 10:37:26;;;;;;;0.10;0.10;;;;;;;18.93;27.46;98522.72;5053142;28;20120;-62
2021/06/18 10:39:55;;;;;;;0.10;0.10;;;;;;;19.32;27.12;98509.69;5054141;28;20040;-63
2021/06/18 10:42:30;;;;;;;0.10;0.10;;;;;;;19.39;26.88;98524.03;5055123;28;20033;-62
2021/06/18 10:44:57;;;;;;;0.10;0.10;;;;;;;18.94;27.59;98529.13;5052477;28;20083;-62
2021/06/18 10:47:23;;;;;;;0.10;0.10;;;;;;;18.31;28.36;98528.91;5050370;28;20073;-62
2021/06/18 10:49:51;;;;;;;0.10;0.10;;;;;;;17.88;28.58;98530.69;5049942;28;20569;-61
2021/06/18 10:52:19;;;;;;;0.10;0.10;;;;;;;17.77;28.89;98533.53;5048291;28;20033;-63
2021/06/18 10:54:50;;;;;;;0.20;0.20;;;;;;;17.82;28.82;98532.66;5050868;28;20041;-64
2021/06/18 10:57:24;;;;;;;0.30;0.30;;;;;;;18.08;28.12;98530.53;5051067;28;20063;-65
2021/06/18 10:59:53;;;;;;;0.85;0.55;;;;;;;18.25;28.13;98534.81;5050752;28;20041;-65
2021/06/18 11:02:22;;;;;;;0.17;0.17;;;;;;;18.20;28.00;98530.97;5048423;28;20090;-64
2021/06/18 11:04:59;;;;;;;0.10;0.10;;;;;;;18.18;28.00;98533.22;5050373;28;20037;-62
2021/06/18 11:07:35;;;;;;;0.20;0.20;;;;;;;18.16;28.32;98538.22;5050794;28;20035;-66
2021/06/18 11:10:01;;;;;;;0.10;0.10;;;;;;;18.14;28.27;98536.88;5049110;28;20037;-66
2021/06/18 11:12:29;;;;;;;0.20;0.20;;;;;;;18.53;27.68;98544.28;5051825;28;20067;-65
2021/06/18 11:15:05;;;;;;;0.68;0.22;;;;;;;18.95;27.22;98537.16;5050701;28;20496;-62
2021/06/18 11:17:40;;;;;;;0.10;0.10;;;;;;;19.20;26.98;98547.16;5050780;28;20040;-64
2021/06/18 11:20:14;;;;;;;0.10;0.10;;;;;;;19.25;26.82;98538.72;5050217;28;20064;-63
2021/06/18 11:22:53;;;;;;;0.15;0.15;;;;;;;19.21;26.98;98548.81;5050250;28;20498;-64
2021/06/18 11:25:45;;;;;;;0.13;0.13;;;;;;;19.17;27.18;98550.53;5048604;28;20086;-64
2021/06/18 11:28:26;;;;;;;0.10;0.10;;;;;;;19.11;27.11;98546.16;5048814;28;20048;-67
2021/06/18 11:30:58;;;;;;;0.10;0.10;;;;;;;18.91;27.50;98547.22;5048515;28;20056;-63
2021/06/18 11:33:36;;;;;;;0.10;0.10;;;;;;;18.74;27.54;98536.53;5048139;28;20064;-65
2021/06/18 11:36:22;;;;;;;0.10;0.10;;;;;;;18.37;28.21;98549.16;5048983;28;20039;-62
2021/06/18 11:38:53;;;;;;;0.10;0.10;;;;;;;17.96;28.49;98542.03;5004417;28;20042;-63
2021/06/18 11:41:29;;;;;;;0.10;0.10;;;;;;;17.74;28.79;98550.78;5006396;28;20056;-63
2021/06/18 11:43:57;;;;;;;0.10;0.10;;;;;;;17.61;29.01;98545.88;5007185;28;20058;-63
2021/06/18 11:46:29;;;;;;;0.10;0.10;;;;;;;17.78;28.66;98546.28;5007919;28;20034;-63
2021/06/18 11:48:57;;;;;;;0.10;0.10;;;;;;;17.95;28.31;98554.25;5006920;28;20040;-62